createdAt,value
2018-04-26T00:00:17.995Z,89.10
2018-04-26T00:01:18.675Z,89.58
2018-04-26T00:02:19.347Z,89.39
2018-04-26T00:03:20.020Z,90.06
2018-04-26T00:04:20.697Z,90.06
2018-04-26T00:05:21.378Z,89.10
2018-04-26T00:06:22.051Z,89.67
2018-04-26T00:07:22.725Z,90.06
2018-04-26T00:08:23.397Z,90.16
2018-04-26T00:09:24.070Z,89.39
2018-04-26T00:10:24.741Z,89.48
2018-04-26T00:11:25.413Z,89.48
2018-04-26T00:12:26.097Z,89.29
2018-04-26T00:13:26.771Z,89.10
2018-04-26T00:14:27.441Z,89.10
2018-04-26T00:15:28.113Z,89.58
2018-04-26T00:16:28.785Z,89.29
2018-04-26T00:17:29.455Z,89.29
2018-04-26T00:18:30.130Z,89.29
2018-04-26T00:19:30.803Z,89.58
2018-04-26T00:20:31.483Z,89.87
2018-04-26T00:21:32.153Z,89.58
2018-04-26T00:22:32.825Z,89.39
2018-04-26T00:23:33.500Z,89.87
2018-04-26T00:24:34.174Z,89.87
2018-04-26T00:25:34.847Z,89.48
2018-04-26T00:26:35.527Z,89.67
2018-04-26T00:27:36.201Z,89.39
2018-04-26T00:28:36.874Z,89.29
2018-04-26T00:29:37.548Z,89.87
2018-04-26T00:30:38.220Z,89.39
2018-04-26T00:31:38.888Z,89.67
2018-04-26T00:32:39.560Z,88.72
2018-04-26T00:33:40.233Z,88.53
2018-04-26T00:34:40.907Z,88.62
2018-04-26T00:35:41.590Z,88.53
2018-04-26T00:36:42.258Z,87.95
2018-04-26T00:37:42.931Z,88.62
2018-04-26T00:38:43.605Z,88.15
2018-04-26T00:39:44.285Z,88.58
2018-04-26T00:40:44.957Z,88.62
2018-04-26T00:41:45.630Z,88.43
2018-04-26T00:42:46.306Z,88.43
2018-04-26T00:43:46.984Z,88.48
2018-04-26T00:44:47.656Z,88.87
2018-04-26T00:45:48.329Z,88.87
2018-04-26T00:46:49.003Z,88.68
2018-04-26T00:47:49.676Z,88.72
2018-04-26T00:48:50.356Z,87.91
2018-04-26T00:49:51.027Z,86.67
2018-04-26T00:50:51.697Z,86.57
2018-04-26T00:51:52.372Z,86.47
2018-04-26T00:52:53.044Z,86.00
2018-04-26T00:53:53.717Z,86.00
2018-04-26T00:54:54.397Z,85.94
2018-04-26T00:55:55.068Z,85.62
2018-04-26T00:56:55.740Z,85.24
2018-04-26T00:57:56.408Z,84.66
2018-04-26T00:58:57.080Z,84.85
2018-04-26T00:59:57.751Z,84.09
2018-04-26T01:00:58.420Z,84.09
2018-04-26T01:01:59.089Z,84.28
2018-04-26T01:02:59.760Z,84.28
2018-04-26T01:04:00.430Z,84.61
2018-04-26T01:05:01.109Z,84.70
2018-04-26T01:06:01.786Z,84.09
2018-04-26T01:07:02.457Z,83.80
2018-04-26T01:08:03.127Z,82.46
2018-04-26T01:09:03.801Z,82.37
2018-04-26T01:10:04.477Z,81.22
2018-04-26T01:11:05.150Z,81.32
2018-04-26T01:12:05.821Z,81.32
2018-04-26T01:13:06.500Z,80.93
2018-04-26T01:14:07.171Z,81.13
2018-04-26T01:15:07.843Z,80.74
2018-04-26T01:16:08.514Z,80.74
2018-04-26T01:17:09.185Z,80.46
2018-04-26T01:18:09.859Z,80.07
2018-04-26T01:19:10.530Z,80.17
2018-04-26T01:20:11.301Z,79.98
2018-04-26T01:21:11.872Z,80.17
2018-04-26T01:22:12.550Z,80.07
2018-04-26T01:23:13.220Z,80.27
2018-04-26T01:24:13.893Z,80.27
2018-04-26T01:25:14.572Z,80.55
2018-04-26T01:26:15.242Z,80.93
2018-04-26T01:27:15.916Z,81.03
2018-04-26T01:28:16.588Z,81.03
2018-04-26T01:29:17.261Z,81.41
2018-04-26T01:30:17.932Z,81.32
2018-04-26T01:31:18.605Z,81.60
2018-04-26T01:32:19.277Z,81.51
2018-04-26T01:33:19.950Z,81.79
2018-04-26T01:34:20.627Z,82.94
2018-04-26T01:35:21.306Z,82.65
2018-04-26T01:36:21.977Z,82.75
2018-04-26T01:37:22.649Z,82.84
2018-04-26T01:38:23.322Z,82.84
2018-04-26T01:39:23.993Z,82.84
2018-04-26T01:40:24.666Z,83.28
2018-04-26T01:41:25.339Z,83.23
2018-04-26T01:42:26.016Z,82.84
2018-04-26T01:43:26.690Z,82.75
2018-04-26T01:44:27.361Z,82.81
2018-04-26T01:45:28.032Z,82.56
2018-04-26T01:46:28.701Z,82.75
2018-04-26T01:47:29.375Z,82.52
2018-04-26T01:48:30.047Z,82.42
2018-04-26T01:49:30.718Z,82.61
2018-04-26T01:50:31.389Z,82.52
2018-04-26T01:51:32.057Z,82.61
2018-04-26T01:52:32.729Z,82.81
2018-04-26T01:53:33.406Z,82.14
2018-04-26T01:54:34.076Z,82.61
2018-04-26T01:55:34.748Z,82.71
2018-04-26T01:56:35.421Z,81.37
2018-04-26T01:57:36.093Z,81.37
2018-04-26T01:58:36.763Z,81.85
2018-04-26T01:59:37.436Z,81.76
2018-04-26T02:00:38.109Z,81.47
2018-04-26T02:01:38.781Z,80.70
2018-04-26T02:02:39.452Z,80.51
2018-04-26T02:03:40.127Z,79.46
2018-04-26T02:04:40.791Z,78.22
2018-04-26T02:05:41.459Z,77.74
2018-04-26T02:06:42.131Z,77.65
2018-04-26T02:07:42.801Z,77.26
2018-04-26T02:08:43.475Z,77.74
2018-04-26T02:09:44.221Z,77.84
2018-04-26T02:10:44.829Z,77.94
2018-04-26T02:11:45.501Z,77.74
2018-04-26T02:12:46.166Z,77.65
2018-04-26T02:13:46.839Z,77.74
2018-04-26T02:14:47.517Z,77.94
2018-04-26T02:15:48.182Z,77.55
2018-04-26T02:16:48.854Z,77.84
2018-04-26T02:17:49.525Z,77.74
2018-04-26T02:18:50.238Z,78.03
2018-04-26T02:19:50.870Z,78.31
2018-04-26T02:20:51.544Z,78.22
2018-04-26T02:21:52.222Z,78.31
2018-04-26T02:22:52.899Z,78.12
2018-04-26T02:23:53.572Z,78.12
2018-04-26T02:24:54.244Z,78.41
2018-04-26T02:25:54.915Z,78.31
2018-04-26T02:26:55.590Z,78.31
2018-04-26T02:27:56.262Z,78.31
2018-04-26T02:28:56.934Z,78.79
2018-04-26T02:29:57.609Z,78.60
2018-04-26T02:30:58.279Z,78.03
2018-04-26T02:31:58.953Z,78.70
2018-04-26T02:32:59.624Z,78.31
2018-04-26T02:34:00.303Z,78.31
2018-04-26T02:35:00.973Z,78.60
2018-04-26T02:36:01.649Z,78.56
2018-04-26T02:37:02.322Z,78.41
2018-04-26T02:38:02.994Z,78.31
2018-04-26T02:39:03.664Z,78.60
2018-04-26T02:40:04.336Z,78.75
2018-04-26T02:41:05.007Z,78.99
2018-04-26T02:42:05.681Z,79.33
2018-04-26T02:43:06.358Z,79.56
2018-04-26T02:44:07.033Z,79.65
2018-04-26T02:45:07.710Z,79.43
2018-04-26T02:46:08.376Z,79.80
2018-04-26T02:47:09.050Z,80.19
2018-04-26T02:48:09.721Z,80.47
2018-04-26T02:49:10.391Z,80.38
2018-04-26T02:50:11.071Z,80.85
2018-04-26T02:51:11.750Z,81.14
2018-04-26T02:52:12.407Z,81.52
2018-04-26T02:53:13.082Z,81.14
2018-04-26T02:54:13.749Z,81.71
2018-04-26T02:55:14.432Z,82.67
2018-04-26T02:56:15.099Z,82.48
2018-04-26T02:57:15.772Z,82.48
2018-04-26T02:58:16.440Z,82.48
2018-04-26T02:59:17.160Z,82.57
2018-04-26T03:00:17.784Z,83.05
2018-04-26T03:01:18.456Z,82.57
2018-04-26T03:02:19.125Z,83.05
2018-04-26T03:03:19.796Z,83.05
2018-04-26T03:04:20.473Z,83.48
2018-04-26T03:05:21.137Z,83.96
2018-04-26T03:06:21.807Z,84.16
2018-04-26T03:07:22.474Z,85.34
2018-04-26T03:08:23.188Z,85.39
2018-04-26T03:09:23.812Z,85.30
2018-04-26T03:10:24.483Z,85.68
2018-04-26T03:11:25.153Z,85.77
2018-04-26T03:12:25.835Z,86.35
2018-04-26T03:13:26.513Z,87.11
2018-04-26T03:14:27.180Z,87.40
2018-04-26T03:15:27.850Z,87.87
2018-04-26T03:16:28.528Z,87.87
2018-04-26T03:17:29.201Z,88.73
2018-04-26T03:18:29.868Z,88.73
2018-04-26T03:19:30.538Z,89.31
2018-04-26T03:20:31.210Z,89.78
2018-04-26T03:21:31.881Z,90.45
2018-04-26T03:22:32.550Z,90.17
2018-04-26T03:23:33.221Z,90.17
2018-04-26T03:24:33.892Z,91.46
2018-04-26T03:25:34.564Z,91.69
2018-04-26T03:26:35.234Z,91.64
2018-04-26T03:27:35.905Z,92.26
2018-04-26T03:28:36.590Z,91.98
2018-04-26T03:29:37.257Z,92.41
2018-04-26T03:30:37.933Z,92.50
2018-04-26T03:31:38.601Z,92.41
2018-04-26T03:32:39.273Z,93.36
2018-04-26T03:33:39.948Z,93.84
2018-04-26T03:34:40.617Z,93.74
2018-04-26T03:35:41.287Z,94.32
2018-04-26T03:36:41.961Z,93.74
2018-04-26T03:37:42.633Z,93.27
2018-04-26T03:38:43.310Z,94.22
2018-04-26T03:39:44.046Z,94.41
2018-04-26T03:40:44.710Z,94.41
2018-04-26T03:41:45.376Z,94.51
2018-04-26T03:42:46.056Z,94.03
2018-04-26T03:43:46.730Z,94.22
2018-04-26T03:44:47.397Z,94.03
2018-04-26T03:45:48.076Z,94.98
2018-04-26T03:46:48.751Z,94.41
2018-04-26T03:47:49.423Z,95.46
2018-04-26T03:48:50.096Z,94.41
2018-04-26T03:49:50.765Z,94.41
2018-04-26T03:50:51.437Z,94.89
2018-04-26T03:51:52.104Z,94.70
2018-04-26T03:52:52.771Z,94.70
2018-04-26T03:53:53.442Z,94.22
2018-04-26T03:54:54.116Z,95.17
2018-04-26T03:55:54.783Z,95.08
2018-04-26T03:56:55.457Z,95.75
2018-04-26T03:57:56.124Z,96.13
2018-04-26T03:58:56.796Z,95.84
2018-04-26T03:59:57.466Z,96.61
2018-04-26T04:00:58.141Z,97.37
2018-04-26T04:01:58.813Z,97.56
2018-04-26T04:02:59.483Z,97.66
2018-04-26T04:04:00.155Z,97.08
2018-04-26T04:05:00.830Z,97.66
2018-04-26T04:06:01.503Z,96.98
2018-04-26T04:07:02.179Z,97.17
2018-04-26T04:08:02.855Z,97.61
2018-04-26T04:09:03.524Z,98.85
2018-04-26T04:10:04.196Z,98.94
2018-04-26T04:11:04.873Z,99.99
2018-04-26T04:12:05.542Z,99.51
2018-04-26T04:13:06.215Z,99.89
2018-04-26T04:14:06.895Z,99.99
2018-04-26T04:15:07.565Z,99.99
2018-04-26T04:16:08.236Z,99.51
2018-04-26T04:17:08.914Z,99.80
2018-04-26T04:18:09.577Z,99.32
2018-04-26T04:19:10.248Z,99.80
2018-04-26T04:20:10.918Z,99.99
2018-04-26T04:21:11.587Z,99.99
2018-04-26T04:22:12.260Z,99.60
2018-04-26T04:23:12.937Z,99.56
2018-04-26T04:24:13.606Z,99.99
2018-04-26T04:25:14.274Z,99.99
2018-04-26T04:26:14.941Z,99.70
2018-04-26T04:27:15.616Z,99.60
2018-04-26T04:28:16.285Z,99.99
2018-04-26T04:29:16.963Z,99.99
2018-04-26T04:30:17.634Z,99.99
2018-04-26T04:31:18.307Z,99.99
2018-04-26T04:32:18.980Z,99.99
2018-04-26T04:33:19.650Z,99.99
2018-04-26T04:34:20.323Z,99.99
2018-04-26T04:35:21.068Z,99.99
2018-04-26T04:36:21.670Z,99.99
2018-04-26T04:37:22.343Z,99.99
2018-04-26T04:38:23.021Z,99.99
2018-04-26T04:39:23.693Z,99.99
2018-04-26T04:40:24.371Z,99.99
2018-04-26T04:41:25.041Z,99.99
2018-04-26T04:42:25.726Z,99.99
2018-04-26T04:43:26.402Z,99.99
2018-04-26T04:44:27.075Z,99.99
2018-04-26T04:45:27.751Z,99.99
2018-04-26T04:46:28.425Z,99.99
2018-04-26T04:47:29.099Z,99.99
2018-04-26T04:48:29.785Z,99.99
2018-04-26T04:49:30.456Z,99.99
2018-04-26T04:50:31.134Z,99.99
2018-04-26T04:51:31.810Z,99.99
2018-04-26T04:52:32.486Z,99.99
2018-04-26T04:53:33.164Z,99.99
2018-04-26T04:54:33.835Z,99.99
2018-04-26T04:55:34.509Z,99.99
2018-04-26T04:56:35.185Z,99.99
2018-04-26T04:57:35.858Z,99.99
2018-04-26T04:58:36.531Z,99.99
2018-04-26T04:59:37.204Z,99.99
2018-04-26T05:00:37.876Z,99.99
2018-04-26T05:01:38.550Z,99.99
2018-04-26T05:02:39.224Z,99.99
2018-04-26T05:03:39.905Z,99.99
2018-04-26T05:04:40.576Z,99.99
2018-04-26T05:05:41.249Z,99.99
2018-04-26T05:06:41.921Z,99.99
2018-04-26T05:07:42.597Z,99.99
2018-04-26T05:08:43.281Z,99.99
2018-04-26T05:09:43.956Z,99.99
2018-04-26T05:10:44.628Z,99.99
2018-04-26T05:11:45.299Z,99.99
2018-04-26T05:12:45.975Z,99.99
2018-04-26T05:13:46.657Z,99.99
2018-04-26T05:14:47.328Z,99.99
2018-04-26T05:15:48.012Z,99.99
2018-04-26T05:16:48.679Z,99.99
2018-04-26T05:17:49.353Z,99.99
2018-04-26T05:18:50.031Z,99.99
2018-04-26T05:19:50.705Z,99.99
2018-04-26T05:20:51.380Z,99.99
2018-04-26T05:21:52.049Z,99.99
2018-04-26T05:22:52.722Z,99.99
2018-04-26T05:23:53.399Z,99.99
2018-04-26T05:24:54.081Z,99.99
2018-04-26T05:25:54.756Z,99.99
2018-04-26T05:26:55.431Z,99.99
2018-04-26T05:27:56.128Z,99.99
2018-04-26T05:28:56.786Z,99.99
2018-04-26T05:29:57.484Z,99.99
2018-04-26T05:30:58.139Z,99.99
2018-04-26T05:31:58.817Z,99.99
2018-04-26T05:32:59.490Z,99.99
2018-04-26T05:34:00.169Z,99.99
2018-04-26T05:35:00.844Z,99.99
2018-04-26T05:36:01.544Z,99.99
2018-04-26T05:37:02.216Z,99.99
2018-04-26T05:38:02.902Z,99.99
2018-04-26T05:39:03.577Z,99.99
2018-04-26T05:40:04.264Z,99.99
2018-04-26T05:41:04.933Z,99.99
2018-04-26T05:42:05.615Z,99.99
2018-04-26T05:43:06.287Z,99.99
2018-04-26T05:44:06.969Z,99.99
2018-04-26T05:45:07.645Z,99.99
2018-04-26T05:46:08.323Z,99.99
2018-04-26T05:47:08.998Z,99.99
2018-04-26T05:48:09.677Z,99.99
2018-04-26T05:49:10.351Z,99.99
2018-04-26T05:50:11.023Z,99.99
2018-04-26T05:51:11.698Z,99.99
2018-04-26T05:52:12.372Z,99.99
2018-04-26T05:53:13.050Z,99.99
2018-04-26T05:54:13.730Z,99.99
2018-04-26T05:55:14.403Z,99.99
2018-04-26T05:56:15.077Z,99.99
2018-04-26T05:57:15.754Z,99.99
2018-04-26T05:58:16.428Z,99.99
2018-04-26T05:59:17.104Z,99.99
2018-04-26T06:00:17.780Z,99.99
2018-04-26T06:01:18.458Z,99.99
2018-04-26T06:02:19.133Z,99.99
2018-04-26T06:03:19.815Z,99.99
2018-04-26T06:04:20.497Z,99.99
2018-04-26T06:05:21.174Z,99.99
2018-04-26T06:06:21.851Z,99.99
2018-04-26T06:07:22.523Z,99.99
2018-04-26T06:08:23.202Z,99.99
2018-04-26T06:09:23.880Z,99.99
2018-04-26T06:10:24.553Z,99.99
2018-04-26T06:11:25.313Z,99.99
2018-04-26T06:12:25.914Z,99.99
2018-04-26T06:13:26.588Z,99.99
2018-04-26T06:14:27.260Z,99.99
2018-04-26T06:15:27.948Z,99.99
2018-04-26T06:16:28.621Z,99.99
2018-04-26T06:17:29.294Z,99.99
2018-04-26T06:18:29.968Z,99.99
2018-04-26T06:19:30.643Z,99.99
2018-04-26T06:20:31.320Z,99.99
2018-04-26T06:21:31.998Z,99.99
2018-04-26T06:22:32.674Z,99.99
2018-04-26T06:23:33.352Z,99.99
2018-04-26T06:24:34.027Z,99.99
2018-04-26T06:25:34.707Z,99.99
2018-04-26T06:26:35.391Z,99.99
2018-04-26T06:27:36.067Z,99.99
2018-04-26T06:28:36.743Z,99.99
2018-04-26T06:29:37.427Z,99.99
2018-04-26T06:30:38.101Z,99.99
2018-04-26T06:31:38.784Z,99.99
2018-04-26T06:32:39.461Z,99.99
2018-04-26T06:33:40.139Z,99.99
2018-04-26T06:34:40.819Z,99.99
2018-04-26T06:35:41.492Z,99.99
2018-04-26T06:36:42.165Z,99.99
2018-04-26T06:37:42.842Z,99.99
2018-04-26T06:38:43.520Z,99.99
2018-04-26T06:39:44.192Z,99.99
2018-04-26T06:40:44.865Z,99.99
2018-04-26T06:41:45.539Z,99.99
2018-04-26T06:42:46.219Z,99.95
2018-04-26T06:43:46.899Z,99.99
2018-04-26T06:44:47.575Z,99.85
2018-04-26T06:45:48.248Z,99.47
2018-04-26T06:46:48.925Z,99.57
2018-04-26T06:47:49.622Z,99.42
2018-04-26T06:48:50.277Z,99.61
2018-04-26T06:49:50.955Z,99.66
2018-04-26T06:50:51.630Z,99.37
2018-04-26T06:51:52.311Z,99.57
2018-04-26T06:52:52.986Z,98.61
2018-04-26T06:53:53.663Z,98.99
2018-04-26T06:54:54.339Z,97.75
2018-04-26T06:55:55.024Z,98.42
2018-04-26T06:56:55.698Z,98.94
2018-04-26T06:57:56.382Z,98.37
2018-04-26T06:58:57.056Z,97.89
2018-04-26T06:59:57.744Z,97.18
2018-04-26T07:00:58.423Z,95.94
2018-04-26T07:01:59.098Z,96.32
2018-04-26T07:02:59.774Z,96.32
2018-04-26T07:04:00.456Z,95.27
2018-04-26T07:05:01.136Z,94.12
2018-04-26T07:06:01.811Z,95.41
2018-04-26T07:07:02.492Z,94.55
2018-04-26T07:08:03.165Z,92.83
2018-04-26T07:09:03.843Z,92.74
2018-04-26T07:10:04.520Z,92.69
2018-04-26T07:11:05.196Z,92.74
2018-04-26T07:12:05.884Z,92.36
2018-04-26T07:13:06.552Z,91.11
2018-04-26T07:14:07.232Z,90.21
2018-04-26T07:15:07.911Z,90.11
2018-04-26T07:16:08.585Z,90.50
2018-04-26T07:17:09.260Z,90.02
2018-04-26T07:18:09.941Z,90.54
2018-04-26T07:19:10.621Z,90.50
2018-04-26T07:20:11.298Z,89.35
2018-04-26T07:21:11.977Z,89.16
2018-04-26T07:22:12.658Z,89.35
2018-04-26T07:23:13.332Z,88.97
2018-04-26T07:24:14.011Z,89.25
2018-04-26T07:25:14.689Z,88.97
2018-04-26T07:26:15.373Z,88.68
2018-04-26T07:27:16.048Z,87.44
2018-04-26T07:28:16.728Z,88.78
2018-04-26T07:29:17.404Z,89.16
2018-04-26T07:30:18.082Z,88.73
2018-04-26T07:31:18.758Z,87.96
2018-04-26T07:32:19.438Z,87.29
2018-04-26T07:33:20.118Z,87.48
2018-04-26T07:34:20.792Z,86.43
2018-04-26T07:35:21.482Z,85.38
2018-04-26T07:36:22.160Z,85.48
2018-04-26T07:37:22.836Z,85.38
2018-04-26T07:38:23.514Z,84.52
2018-04-26T07:39:24.191Z,84.43
2018-04-26T07:40:24.866Z,84.43
2018-04-26T07:41:25.549Z,84.37
2018-04-26T07:42:26.291Z,83.51
2018-04-26T07:43:26.965Z,83.33
2018-04-26T07:44:27.640Z,82.28
2018-04-26T07:45:28.325Z,79.75
2018-04-26T07:46:29.029Z,78.41
2018-04-26T07:47:29.705Z,78.51
2018-04-26T07:48:30.385Z,78.45
2018-04-26T07:49:31.059Z,77.36
2018-04-26T07:50:31.741Z,77.65
2018-04-26T07:51:32.412Z,78.45
2018-04-26T07:52:33.095Z,77.78
2018-04-26T07:53:33.776Z,78.07
2018-04-26T07:54:34.449Z,77.50
2018-04-26T07:55:35.132Z,77.59
2018-04-26T07:56:35.808Z,78.45
2018-04-26T07:57:36.485Z,78.16
2018-04-26T07:58:37.159Z,77.40
2018-04-26T07:59:37.840Z,77.30
2018-04-26T08:00:38.526Z,77.69
2018-04-26T08:01:39.319Z,77.59
2018-04-26T08:02:39.877Z,77.59
2018-04-26T08:03:40.556Z,77.01
2018-04-26T08:04:41.232Z,77.11
2018-04-26T08:05:41.916Z,77.69
2018-04-26T08:06:42.591Z,77.30
2018-04-26T08:07:43.264Z,77.30
2018-04-26T08:08:43.951Z,77.59
2018-04-26T08:09:44.626Z,76.25
2018-04-26T08:10:45.299Z,75.78
2018-04-26T08:11:45.992Z,75.10
2018-04-26T08:12:46.664Z,74.15
2018-04-26T08:13:47.344Z,74.15
2018-04-26T08:14:48.026Z,74.53
2018-04-26T08:15:48.703Z,75.10
2018-04-26T08:16:49.393Z,74.34
2018-04-26T08:17:50.068Z,73.96
2018-04-26T08:18:50.744Z,73.29
2018-04-26T08:19:51.430Z,73.67
2018-04-26T08:20:52.101Z,73.61
2018-04-26T08:21:52.782Z,73.19
2018-04-26T08:22:53.472Z,73.10
2018-04-26T08:23:54.134Z,73.19
2018-04-26T08:24:54.833Z,72.72
2018-04-26T08:25:55.488Z,72.43
2018-04-26T08:26:56.230Z,72.62
2018-04-26T08:27:56.904Z,72.14
2018-04-26T08:28:57.582Z,72.56
2018-04-26T08:29:58.260Z,72.56
2018-04-26T08:30:58.939Z,72.47
2018-04-26T08:31:59.615Z,72.28
2018-04-26T08:33:00.298Z,71.61
2018-04-26T08:34:00.981Z,71.80
2018-04-26T08:35:01.660Z,71.80
2018-04-26T08:36:02.339Z,71.13
2018-04-26T08:37:03.020Z,71.13
2018-04-26T08:38:03.700Z,71.16
2018-04-26T08:39:04.379Z,71.64
2018-04-26T08:40:05.060Z,71.36
2018-04-26T08:41:05.733Z,70.40
2018-04-26T08:42:06.409Z,70.78
2018-04-26T08:43:07.083Z,71.07
2018-04-26T08:44:07.762Z,71.16
2018-04-26T08:45:08.439Z,71.45
2018-04-26T08:46:09.116Z,71.83
2018-04-26T08:47:09.793Z,70.97
2018-04-26T08:48:10.472Z,70.56
2018-04-26T08:49:11.153Z,70.65
2018-04-26T08:50:11.829Z,71.13
2018-04-26T08:51:12.506Z,71.13
2018-04-26T08:52:13.237Z,70.94
2018-04-26T08:53:13.872Z,70.94
2018-04-26T08:54:14.757Z,71.03
2018-04-26T08:55:15.432Z,71.22
2018-04-26T08:56:16.115Z,71.13
2018-04-26T08:57:16.788Z,71.51
2018-04-26T08:58:17.463Z,71.03
2018-04-26T08:59:18.141Z,70.59
2018-04-26T09:00:18.818Z,70.01
2018-04-26T09:01:19.494Z,70.27
2018-04-26T09:02:20.185Z,70.94
2018-04-26T09:03:20.872Z,70.97
2018-04-26T09:04:21.550Z,70.97
2018-04-26T09:05:22.237Z,70.50
2018-04-26T09:06:22.914Z,70.68
2018-04-26T09:07:23.590Z,70.59
2018-04-26T09:08:24.270Z,70.40
2018-04-26T09:09:24.946Z,70.21
2018-04-26T09:10:25.623Z,69.73
2018-04-26T09:11:26.297Z,69.64
2018-04-26T09:12:26.972Z,69.54
2018-04-26T09:13:27.660Z,69.64
2018-04-26T09:14:28.334Z,70.50
2018-04-26T09:15:29.015Z,70.59
2018-04-26T09:16:29.692Z,70.30
2018-04-26T09:17:30.365Z,69.73
2018-04-26T09:18:31.040Z,69.98
2018-04-26T09:19:31.718Z,70.36
2018-04-26T09:20:32.393Z,69.79
2018-04-26T09:21:33.073Z,70.27
2018-04-26T09:22:33.750Z,69.70
2018-04-26T09:23:34.425Z,69.70
2018-04-26T09:24:35.102Z,69.21
2018-04-26T09:25:35.783Z,69.41
2018-04-26T09:26:36.461Z,68.64
2018-04-26T09:27:37.135Z,68.45
2018-04-26T09:28:37.813Z,68.35
2018-04-26T09:29:38.490Z,68.35
2018-04-26T09:30:39.165Z,68.80
2018-04-26T09:31:39.844Z,68.55
2018-04-26T09:32:40.527Z,69.02
2018-04-26T09:33:41.208Z,68.93
2018-04-26T09:34:41.888Z,68.84
2018-04-26T09:35:42.566Z,69.18
2018-04-26T09:36:43.242Z,69.56
2018-04-26T09:37:43.918Z,69.70
2018-04-26T09:38:44.602Z,69.31
2018-04-26T09:39:45.273Z,68.84
2018-04-26T09:40:45.950Z,68.74
2018-04-26T09:41:46.623Z,68.93
2018-04-26T09:42:47.306Z,68.64
2018-04-26T09:43:47.982Z,68.45
2018-04-26T09:44:48.663Z,68.96
2018-04-26T09:45:49.343Z,68.87
2018-04-26T09:46:50.018Z,68.55
2018-04-26T09:47:50.722Z,67.97
2018-04-26T09:48:51.406Z,68.39
2018-04-26T09:49:52.082Z,68.39
2018-04-26T09:50:52.761Z,68.58
2018-04-26T09:51:53.452Z,68.58
2018-04-26T09:52:54.133Z,67.97
2018-04-26T09:53:54.818Z,68.29
2018-04-26T09:54:55.504Z,68.10
2018-04-26T09:55:56.182Z,68.20
2018-04-26T09:56:56.860Z,68.39
2018-04-26T09:57:57.544Z,68.87
2018-04-26T09:58:58.218Z,69.25
2018-04-26T09:59:58.898Z,69.73
2018-04-26T10:00:59.576Z,70.40
2018-04-26T10:02:00.270Z,70.50
2018-04-26T10:03:00.946Z,70.78
2018-04-26T10:04:01.635Z,70.78
2018-04-26T10:05:02.321Z,69.67
2018-04-26T10:06:03.004Z,69.76
2018-04-26T10:07:03.688Z,69.19
2018-04-26T10:08:04.364Z,68.90
2018-04-26T10:09:05.046Z,69.00
2018-04-26T10:10:05.755Z,68.71
2018-04-26T10:11:06.397Z,68.71
2018-04-26T10:12:07.070Z,68.96
2018-04-26T10:13:07.746Z,69.48
2018-04-26T10:14:08.422Z,69.09
2018-04-26T10:15:09.181Z,68.33
2018-04-26T10:16:09.780Z,68.49
2018-04-26T10:17:10.461Z,68.96
2018-04-26T10:18:11.141Z,68.42
2018-04-26T10:19:11.821Z,68.62
2018-04-26T10:20:12.496Z,67.85
2018-04-26T10:21:13.182Z,67.56
2018-04-26T10:22:13.855Z,68.52
2018-04-26T10:23:14.534Z,68.65
2018-04-26T10:24:15.217Z,66.74
2018-04-26T10:25:15.900Z,65.84
2018-04-26T10:26:16.576Z,66.06
2018-04-26T10:27:17.263Z,66.64
2018-04-26T10:28:17.942Z,67.02
2018-04-26T10:29:18.630Z,66.48
2018-04-26T10:30:19.306Z,65.14
2018-04-26T10:31:19.983Z,64.18
2018-04-26T10:32:20.662Z,63.51
2018-04-26T10:33:21.339Z,63.03
2018-04-26T10:34:22.022Z,62.07
2018-04-26T10:35:22.708Z,62.17
2018-04-26T10:36:23.377Z,62.17
2018-04-26T10:37:24.059Z,61.11
2018-04-26T10:38:24.734Z,61.21
2018-04-26T10:39:25.442Z,60.13
2018-04-26T10:40:26.087Z,60.51
2018-04-26T10:41:26.771Z,59.62
2018-04-26T10:42:27.447Z,60.48
2018-04-26T10:43:28.128Z,60.29
2018-04-26T10:44:28.817Z,60.00
2018-04-26T10:45:29.493Z,60.29
2018-04-26T10:46:30.176Z,60.38
2018-04-26T10:47:30.861Z,59.62
2018-04-26T10:48:31.541Z,60.35
2018-04-26T10:49:32.230Z,60.55
2018-04-26T10:50:32.909Z,60.93
2018-04-26T10:51:33.592Z,60.06
2018-04-26T10:52:34.270Z,60.77
2018-04-26T10:53:34.963Z,60.38
2018-04-26T10:54:35.640Z,61.05
2018-04-26T10:55:36.319Z,60.86
2018-04-26T10:56:36.992Z,60.38
2018-04-26T10:57:37.670Z,59.81
2018-04-26T10:58:38.349Z,60.35
2018-04-26T10:59:39.030Z,61.31
2018-04-26T11:00:39.708Z,62.08
2018-04-26T11:01:40.386Z,61.79
2018-04-26T11:02:41.058Z,62.20
2018-04-26T11:03:41.736Z,62.20
2018-04-26T11:04:42.413Z,61.22
2018-04-26T11:05:43.094Z,61.79
2018-04-26T11:06:43.773Z,62.17
2018-04-26T11:07:44.454Z,61.98
2018-04-26T11:08:45.129Z,61.79
2018-04-26T11:09:45.808Z,61.88
2018-04-26T11:10:46.487Z,61.22
2018-04-26T11:11:47.166Z,61.31
2018-04-26T11:12:47.844Z,61.98
2018-04-26T11:13:48.526Z,62.46
2018-04-26T11:14:49.213Z,62.65
2018-04-26T11:15:49.889Z,62.40
2018-04-26T11:16:50.567Z,62.27
2018-04-26T11:17:51.247Z,62.27
2018-04-26T11:18:51.923Z,61.98
2018-04-26T11:19:52.603Z,62.55
2018-04-26T11:20:53.279Z,61.98
2018-04-26T11:21:53.956Z,61.15
2018-04-26T11:22:54.635Z,61.44
2018-04-26T11:23:55.309Z,61.05
2018-04-26T11:24:55.990Z,60.26
2018-04-26T11:25:56.675Z,60.10
2018-04-26T11:26:57.352Z,60.67
2018-04-26T11:27:58.029Z,60.38
2018-04-26T11:28:58.710Z,60.29
2018-04-26T11:29:59.388Z,60.48
2018-04-26T11:31:00.171Z,60.10
2018-04-26T11:32:00.743Z,61.15
2018-04-26T11:33:01.423Z,59.72
2018-04-26T11:34:02.110Z,59.81
2018-04-26T11:35:02.790Z,59.94
2018-04-26T11:36:03.469Z,59.36
2018-04-26T11:37:04.150Z,59.52
2018-04-26T11:38:04.829Z,59.91
2018-04-26T11:39:05.503Z,59.91
2018-04-26T11:40:06.271Z,59.33
2018-04-26T11:41:06.868Z,59.91
2018-04-26T11:42:07.551Z,60.00
2018-04-26T11:43:08.272Z,60.64
2018-04-26T11:44:08.955Z,61.60
2018-04-26T11:45:09.631Z,61.88
2018-04-26T11:46:10.303Z,61.12
2018-04-26T11:47:10.994Z,61.51
2018-04-26T11:48:11.681Z,61.98
2018-04-26T11:49:12.359Z,61.98
2018-04-26T11:50:13.039Z,61.88
2018-04-26T11:51:13.943Z,61.79
2018-04-26T11:52:14.621Z,61.88
2018-04-26T11:53:15.300Z,60.93
2018-04-26T11:54:15.986Z,59.58
2018-04-26T11:55:16.675Z,59.11
2018-04-26T11:56:17.440Z,59.39
2018-04-26T11:57:18.037Z,58.65
2018-04-26T11:58:18.715Z,57.63
2018-04-26T11:59:19.395Z,55.93
2018-04-26T12:00:20.078Z,54.83
2018-04-26T12:01:20.750Z,51.93
2018-04-26T12:02:21.437Z,50.78
2018-04-26T12:03:22.102Z,50.56
2018-04-26T12:04:22.776Z,51.43
2018-04-26T12:05:23.452Z,51.21
2018-04-26T12:06:24.136Z,51.79
2018-04-26T12:07:24.821Z,51.69
2018-04-26T12:08:25.497Z,52.05
2018-04-26T12:09:26.177Z,52.91
2018-04-26T12:10:26.857Z,52.69
2018-04-26T12:11:27.539Z,53.46
2018-04-26T12:12:28.220Z,53.58
2018-04-26T12:13:28.903Z,52.72
2018-04-26T12:14:29.585Z,53.75
2018-04-26T12:15:30.264Z,54.21
2018-04-26T12:16:30.944Z,54.66
2018-04-26T12:17:31.633Z,55.21
2018-04-26T12:18:32.333Z,55.97
2018-04-26T12:19:32.999Z,56.86
2018-04-26T12:20:33.682Z,55.67
2018-04-26T12:21:34.362Z,53.47
2018-04-26T12:22:35.046Z,49.34
2018-04-26T12:23:35.722Z,45.69
2018-04-26T12:24:36.400Z,43.45
2018-04-26T12:25:37.102Z,44.42
2018-04-26T12:26:37.777Z,45.51
2018-04-26T12:27:38.461Z,44.90
2018-04-26T12:28:39.143Z,41.77
2018-04-26T12:29:39.829Z,39.84
2018-04-26T12:30:40.503Z,37.34
2018-04-26T12:31:41.200Z,33.95
2018-04-26T12:32:41.883Z,33.18
2018-04-26T12:33:42.562Z,32.11
2018-04-26T12:34:43.243Z,32.81
2018-04-26T12:35:43.931Z,35.07
2018-04-26T12:36:44.610Z,37.04
2018-04-26T12:37:45.288Z,39.36
2018-04-26T12:38:45.971Z,42.38
2018-04-26T12:39:46.652Z,44.26
2018-04-26T12:40:47.334Z,44.82
2018-04-26T12:41:48.017Z,45.28
2018-04-26T12:42:48.707Z,47.56
2018-04-26T12:43:49.398Z,46.89
2018-04-26T12:44:50.003Z,45.92
2018-04-26T12:45:50.758Z,45.45
2018-04-26T12:46:51.447Z,44.82
2018-04-26T12:47:52.127Z,45.67
2018-04-26T12:48:52.803Z,46.72
2018-04-26T12:49:53.481Z,46.79
2018-04-26T12:50:54.165Z,47.08
2018-04-26T12:51:54.851Z,47.58
2018-04-26T12:52:55.526Z,47.30
2018-04-26T12:53:56.209Z,47.10
2018-04-26T12:54:56.899Z,45.95
2018-04-26T12:55:57.585Z,45.28
2018-04-26T12:56:58.276Z,44.92
2018-04-26T12:57:58.956Z,44.37
2018-04-26T12:58:59.638Z,44.48
2018-04-26T13:00:00.322Z,44.43
2018-04-26T13:01:01.006Z,43.20